sensor_id;sensor_type;location;lat;lon;timestamp;pressure;altitude;pressure_sealevel;temperature;humidity
79142;BME280;68550;-26.480;29.234;2023-05-23T00:05:56;84499.79;;;21.13;29.78
79142;BME280;68550;-26.480;29.234;2023-05-23T00:08:21;84501.07;;;21.04;29.85
79142;BME280;68550;-26.480;29.234;2023-05-23T00:10:47;84500.92;;;20.54;29.84
79142;BME280;68550;-26.480;29.234;2023-05-23T00:13:13;84499.59;;;21.00;29.88
79142;BME280;68550;-26.480;29.234;2023-05-23T00:15:38;84500.57;;;21.05;29.80
79142;BME280;68550;-26.480;29.234;2023-05-23T00:20:29;84497.52;;;20.98;29.78
79142;BME280;68550;-26.480;29.234;2023-05-23T00:22:55;84496.65;;;20.76;29.96
79142;BME280;68550;-26.480;29.234;2023-05-23T00:25:20;84492.83;;;20.37;29.87
79142;BME280;68550;-26.480;29.234;2023-05-23T00:27:46;84492.83;;;20.64;29.79
79142;BME280;68550;-26.480;29.234;2023-05-23T00:30:11;84493.03;;;20.35;29.84
79142;BME280;68550;-26.480;29.234;2023-05-23T00:35:04;84487.21;;;20.94;29.74
79142;BME280;68550;-26.480;29.234;2023-05-23T00:37:29;84484.48;;;20.95;29.71
79142;BME280;68550;-26.480;29.234;2023-05-23T00:51:59;84474.66;;;20.63;29.70
79142;BME280;68550;-26.480;29.234;2023-05-23T00:54:27;84474.19;;;20.59;29.73
79142;BME280;68550;-26.480;29.234;2023-05-23T00:56:51;84469.96;;;20.73;29.82
79142;BME280;68550;-26.480;29.234;2023-05-23T00:59:16;84472.82;;;20.78;29.75
79142;BME280;68550;-26.480;29.234;2023-05-23T01:01:42;84472.11;;;20.64;29.89
79142;BME280;68550;-26.480;29.234;2023-05-23T01:04:07;84471.20;;;20.57;29.96
79142;BME280;68550;-26.480;29.234;2023-05-23T01:06:44;84470.92;;;20.20;30.33
79142;BME280;68550;-26.480;29.234;2023-05-23T01:11:40;84469.56;;;20.50;29.71
79142;BME280;68550;-26.480;29.234;2023-05-23T01:14:09;84468.07;;;20.61;29.59
79142;BME280;68550;-26.480;29.234;2023-05-23T01:16:31;84473.39;;;20.53;29.63
79142;BME280;68550;-26.480;29.234;2023-05-23T01:18:56;84472.72;;;20.85;29.54
79142;BME280;68550;-26.480;29.234;2023-05-23T01:21:18;84476.61;;;20.71;29.68
79142;BME280;68550;-26.480;29.234;2023-05-23T01:24:02;84475.73;;;20.65;29.71
79142;BME280;68550;-26.480;29.234;2023-05-23T01:26:17;84478.47;;;20.49;29.61
79142;BME280;68550;-26.480;29.234;2023-05-23T01:28:36;84478.57;;;20.80;29.76
79142;BME280;68550;-26.480;29.234;2023-05-23T01:31:01;84475.03;;;20.57;29.76
79142;BME280;68550;-26.480;29.234;2023-05-23T01:33:25;84470.79;;;20.39;29.91
79142;BME280;68550;-26.480;29.234;2023-05-23T01:35:49;84470.53;;;20.19;29.86
79142;BME280;68550;-26.480;29.234;2023-05-23T01:38:15;84470.89;;;20.06;29.97
79142;BME280;68550;-26.480;29.234;2023-05-23T01:40:40;84473.03;;;20.35;29.90
79142;BME280;68550;-26.480;29.234;2023-05-23T01:43:05;84475.96;;;20.43;29.78
79142;BME280;68550;-26.480;29.234;2023-05-23T01:45:31;84474.58;;;20.42;29.76
79142;BME280;68550;-26.480;29.234;2023-05-23T01:47:56;84472.76;;;20.38;29.83
79142;BME280;68550;-26.480;29.234;2023-05-23T01:50:24;84470.99;;;20.06;29.60
79142;BME280;68550;-26.480;29.234;2023-05-23T01:52:47;84469.61;;;20.50;29.63
79142;BME280;68550;-26.480;29.234;2023-05-23T01:55:13;84470.13;;;20.40;29.69
79142;BME280;68550;-26.480;29.234;2023-05-23T01:57:38;84470.68;;;20.78;29.58
79142;BME280;68550;-26.480;29.234;2023-05-23T02:00:04;84470.64;;;20.45;29.66
79142;BME280;68550;-26.480;29.234;2023-05-23T02:02:30;84470.21;;;20.15;29.72
79142;BME280;68550;-26.480;29.234;2023-05-23T02:07:20;84466.02;;;20.33;29.74
79142;BME280;68550;-26.480;29.234;2023-05-23T02:09:45;84470.55;;;20.18;29.89
79142;BME280;68550;-26.480;29.234;2023-05-23T02:12:11;84473.36;;;20.39;29.93
79142;BME280;68550;-26.480;29.234;2023-05-23T02:14:37;84475.77;;;20.25;29.79
79142;BME280;68550;-26.480;29.234;2023-05-23T02:17:04;84477.79;;;20.20;29.83
79142;BME280;68550;-26.480;29.234;2023-05-23T02:19:27;84478.90;;;20.20;29.79
79142;BME280;68550;-26.480;29.234;2023-05-23T02:21:53;84481.40;;;20.45;29.76
79142;BME280;68550;-26.480;29.234;2023-05-23T02:24:18;84482.37;;;19.93;29.79
79142;BME280;68550;-26.480;29.234;2023-05-23T02:26:47;84482.97;;;20.04;29.92
79142;BME280;68550;-26.480;29.234;2023-05-23T02:29:09;84482.51;;;20.32;29.85
79142;BME280;68550;-26.480;29.234;2023-05-23T02:31:36;84483.97;;;20.19;29.76
79142;BME280;68550;-26.480;29.234;2023-05-23T02:34:00;84488.18;;;20.46;29.70
79142;BME280;68550;-26.480;29.234;2023-05-23T02:36:26;84490.10;;;19.93;29.96
79142;BME280;68550;-26.480;29.234;2023-05-23T02:38:51;84490.51;;;20.10;29.81
79142;BME280;68550;-26.480;29.234;2023-05-23T02:41:18;84492.88;;;20.67;29.73
79142;BME280;68550;-26.480;29.234;2023-05-23T02:43:44;84495.29;;;20.28;29.84
79142;BME280;68550;-26.480;29.234;2023-05-23T02:46:08;84492.84;;;20.16;29.70
79142;BME280;68550;-26.480;29.234;2023-05-23T02:48:33;84494.67;;;20.32;29.78
79142;BME280;68550;-26.480;29.234;2023-05-23T02:51:00;84494.95;;;20.77;29.57
79142;BME280;68550;-26.480;29.234;2023-05-23T02:53:24;84496.48;;;20.39;29.71
79142;BME280;68550;-26.480;29.234;2023-05-23T02:55:51;84496.70;;;20.23;29.59
79142;BME280;68550;-26.480;29.234;2023-05-23T02:58:16;84501.80;;;20.20;29.59
79142;BME280;68550;-26.480;29.234;2023-05-23T03:00:41;84503.38;;;20.21;29.57
79142;BME280;68550;-26.480;29.234;2023-05-23T03:03:07;84503.93;;;20.39;29.66
79142;BME280;68550;-26.480;29.234;2023-05-23T03:05:32;84505.30;;;20.32;29.45
79142;BME280;68550;-26.480;29.234;2023-05-23T03:08:01;84503.55;;;20.63;29.38
79142;BME280;68550;-26.480;29.234;2023-05-23T03:10:23;84502.61;;;20.27;29.45
79142;BME280;68550;-26.480;29.234;2023-05-23T03:12:48;84501.76;;;20.34;29.36
79142;BME280;68550;-26.480;29.234;2023-05-23T03:15:14;84501.21;;;20.61;29.35
79142;BME280;68550;-26.480;29.234;2023-05-23T03:17:39;84501.40;;;20.29;29.44
79142;BME280;68550;-26.480;29.234;2023-05-23T03:20:07;84499.95;;;20.15;29.59
79142;BME280;68550;-26.480;29.234;2023-05-23T03:22:30;84505.84;;;20.43;29.56
79142;BME280;68550;-26.480;29.234;2023-05-23T03:24:56;84512.65;;;20.17;29.55
79142;BME280;68550;-26.480;29.234;2023-05-23T03:27:21;84513.13;;;20.23;29.48
79142;BME280;68550;-26.480;29.234;2023-05-23T03:29:47;84517.38;;;20.17;29.47
79142;BME280;68550;-26.480;29.234;2023-05-23T03:32:12;84519.61;;;20.21;29.45
79142;BME280;68550;-26.480;29.234;2023-05-23T03:34:38;84521.04;;;19.80;29.60
79142;BME280;68550;-26.480;29.234;2023-05-23T03:37:04;84525.91;;;20.37;29.75
79142;BME280;68550;-26.480;29.234;2023-05-23T03:39:29;84529.44;;;20.00;29.64
79142;BME280;68550;-26.480;29.234;2023-05-23T03:41:54;84531.75;;;19.88;29.71
79142;BME280;68550;-26.480;29.234;2023-05-23T03:44:19;84530.27;;;19.80;29.80
79142;BME280;68550;-26.480;29.234;2023-05-23T03:46:49;84533.42;;;19.83;29.71
79142;BME280;68550;-26.480;29.234;2023-05-23T03:49:10;84536.72;;;20.05;29.67
79142;BME280;68550;-26.480;29.234;2023-05-23T03:51:35;84537.42;;;19.75;29.70
79142;BME280;68550;-26.480;29.234;2023-05-23T03:54:01;84538.66;;;19.94;29.77
79142;BME280;68550;-26.480;29.234;2023-05-23T03:56:26;84538.54;;;19.86;29.57
79142;BME280;68550;-26.480;29.234;2023-05-23T03:58:55;84541.64;;;19.66;29.79
79142;BME280;68550;-26.480;29.234;2023-05-23T04:01:18;84540.14;;;20.28;29.65
79142;BME280;68550;-26.480;29.234;2023-05-23T04:03:43;84541.69;;;19.86;29.87
79142;BME280;68550;-26.480;29.234;2023-05-23T04:06:09;84538.20;;;20.16;29.79
79142;BME280;68550;-26.480;29.234;2023-05-23T04:08:34;84540.99;;;20.26;29.69
79142;BME280;68550;-26.480;29.234;2023-05-23T04:11:01;84539.68;;;19.78;29.68
79142;BME280;68550;-26.480;29.234;2023-05-23T04:13:25;84546.32;;;20.11;29.60
79142;BME280;68550;-26.480;29.234;2023-05-23T04:15:50;84546.84;;;20.35;29.60
79142;BME280;68550;-26.480;29.234;2023-05-23T04:18:17;84550.17;;;20.27;29.42
79142;BME280;68550;-26.480;29.234;2023-05-23T04:23:11;84550.81;;;20.40;29.54
79142;BME280;68550;-26.480;29.234;2023-05-23T04:25:32;84553.99;;;20.04;29.46
79142;BME280;68550;-26.480;29.234;2023-05-23T04:27:57;84555.29;;;20.14;29.60
79142;BME280;68550;-26.480;29.234;2023-05-23T04:30:24;84560.70;;;19.84;29.66
79142;BME280;68550;-26.480;29.234;2023-05-23T04:32:49;84559.60;;;20.22;29.59
79142;BME280;68550;-26.480;29.234;2023-05-23T04:35:18;84555.67;;;20.21;29.61
79142;BME280;68550;-26.480;29.234;2023-05-23T04:37:39;84560.64;;;20.10;29.77
79142;BME280;68550;-26.480;29.234;2023-05-23T04:40:07;84560.95;;;19.82;29.88
79142;BME280;68550;-26.480;29.234;2023-05-23T04:42:30;84556.34;;;19.89;30.15
79142;BME280;68550;-26.480;29.234;2023-05-23T04:44:55;84551.38;;;20.21;30.09
79142;BME280;68550;-26.480;29.234;2023-05-23T04:47:21;84552.39;;;19.50;30.34
79142;BME280;68550;-26.480;29.234;2023-05-23T04:49:46;84554.29;;;19.71;30.15
79142;BME280;68550;-26.480;29.234;2023-05-23T04:52:11;84553.73;;;19.91;30.13
79142;BME280;68550;-26.480;29.234;2023-05-23T04:54:37;84558.16;;;19.65;30.76
79142;BME280;68550;-26.480;29.234;2023-05-23T04:57:02;84563.68;;;19.87;30.90
79142;BME280;68550;-26.480;29.234;2023-05-23T04:59:30;84566.67;;;19.87;31.28
79142;BME280;68550;-26.480;29.234;2023-05-23T05:01:53;84564.38;;;19.87;31.20
79142;BME280;68550;-26.480;29.234;2023-05-23T05:04:19;84566.28;;;19.82;31.33
79142;BME280;68550;-26.480;29.234;2023-05-23T05:06:44;84566.99;;;19.97;31.18
79142;BME280;68550;-26.480;29.234;2023-05-23T05:09:10;84568.39;;;20.07;31.00
79142;BME280;68550;-26.480;29.234;2023-05-23T05:11:36;84566.99;;;20.05;30.96
79142;BME280;68550;-26.480;29.234;2023-05-23T05:14:02;84567.75;;;20.06;30.99
79142;BME280;68550;-26.480;29.234;2023-05-23T05:16:27;84572.50;;;20.56;31.00
79142;BME280;68550;-26.480;29.234;2023-05-23T05:18:52;84571.17;;;20.05;31.04
79142;BME280;68550;-26.480;29.234;2023-05-23T05:21:17;84573.27;;;20.03;31.03
79142;BME280;68550;-26.480;29.234;2023-05-23T05:23:43;84571.64;;;20.07;31.30
79142;BME280;68550;-26.480;29.234;2023-05-23T05:26:09;84573.72;;;20.08;31.23
79142;BME280;68550;-26.480;29.234;2023-05-23T05:28:35;84576.81;;;19.13;33.99
79142;BME280;68550;-26.480;29.234;2023-05-23T05:31:00;84573.33;;;19.64;33.17
79142;BME280;68550;-26.480;29.234;2023-05-23T05:33:25;84575.37;;;19.38;32.80
79142;BME280;68550;-26.480;29.234;2023-05-23T05:35:51;84574.45;;;19.18;32.83
79142;BME280;68550;-26.480;29.234;2023-05-23T05:38:17;84576.29;;;19.53;32.79
79142;BME280;68550;-26.480;29.234;2023-05-23T05:40:45;84578.37;;;19.59;32.53
79142;BME280;68550;-26.480;29.234;2023-05-23T05:43:08;84577.66;;;19.52;32.70
79142;BME280;68550;-26.480;29.234;2023-05-23T05:45:33;84577.09;;;19.49;32.47
79142;BME280;68550;-26.480;29.234;2023-05-23T05:47:59;84576.86;;;19.55;32.42
79142;BME280;68550;-26.480;29.234;2023-05-23T05:50:25;84575.24;;;19.25;32.72
79142;BME280;68550;-26.480;29.234;2023-05-23T05:52:51;84579.33;;;18.87;32.92
79142;BME280;68550;-26.480;29.234;2023-05-23T05:55:17;84582.76;;;19.22;33.07
79142;BME280;68550;-26.480;29.234;2023-05-23T05:57:41;84579.90;;;19.60;32.51
79142;BME280;68550;-26.480;29.234;2023-05-23T06:00:08;84582.81;;;19.67;32.47
79142;BME280;68550;-26.480;29.234;2023-05-23T06:02:31;84584.35;;;19.62;32.49
79142;BME280;68550;-26.480;29.234;2023-05-23T06:04:57;84582.12;;;19.47;32.66
79142;BME280;68550;-26.480;29.234;2023-05-23T06:07:22;84584.41;;;19.48;32.57
79142;BME280;68550;-26.480;29.234;2023-05-23T06:09:48;84587.20;;;19.58;32.68
79142;BME280;68550;-26.480;29.234;2023-05-23T06:12:14;84589.37;;;19.08;32.89
79142;BME280;68550;-26.480;29.234;2023-05-23T06:14:39;84592.52;;;19.21;32.69
79142;BME280;68550;-26.480;29.234;2023-05-23T06:17:05;84596.75;;;19.24;32.97
79142;BME280;68550;-26.480;29.234;2023-05-23T06:19:31;84592.50;;;19.84;32.16
79142;BME280;68550;-26.480;29.234;2023-05-23T06:22:00;84595.58;;;19.25;32.70
79142;BME280;68550;-26.480;29.234;2023-05-23T06:24:21;84593.44;;;19.33;32.56
79142;BME280;68550;-26.480;29.234;2023-05-23T06:26:47;84596.54;;;19.25;33.21
79142;BME280;68550;-26.480;29.234;2023-05-23T06:29:13;84592.96;;;19.50;32.48
79142;BME280;68550;-26.480;29.234;2023-05-23T06:31:38;84593.01;;;19.42;32.86
79142;BME280;68550;-26.480;29.234;2023-05-23T06:34:04;84593.47;;;18.87;33.59
79142;BME280;68550;-26.480;29.234;2023-05-23T06:36:31;84596.40;;;19.36;33.43
79142;BME280;68550;-26.480;29.234;2023-05-23T06:38:56;84599.57;;;19.13;33.28
79142;BME280;68550;-26.480;29.234;2023-05-23T06:41:20;84599.31;;;19.02;33.39
79142;BME280;68550;-26.480;29.234;2023-05-23T06:43:46;84596.80;;;19.40;33.23
79142;BME280;68550;-26.480;29.234;2023-05-23T06:46:11;84603.23;;;19.38;33.23
79142;BME280;68550;-26.480;29.234;2023-05-23T06:48:37;84597.23;;;19.63;32.84
79142;BME280;68550;-26.480;29.234;2023-05-23T06:51:03;84593.35;;;19.27;32.94
79142;BME280;68550;-26.480;29.234;2023-05-23T06:53:27;84598.96;;;19.31;33.46
79142;BME280;68550;-26.480;29.234;2023-05-23T06:55:52;84598.01;;;19.15;33.44
79142;BME280;68550;-26.480;29.234;2023-05-23T06:58:18;84594.71;;;18.53;34.26
79142;BME280;68550;-26.480;29.234;2023-05-23T07:00:44;84596.24;;;18.66;33.99
79142;BME280;68550;-26.480;29.234;2023-05-23T07:03:11;84601.80;;;19.23;33.91
79142;BME280;68550;-26.480;29.234;2023-05-23T07:05:36;84608.26;;;18.90;34.43
79142;BME280;68550;-26.480;29.234;2023-05-23T07:08:00;84612.88;;;18.41;34.58
79142;BME280;68550;-26.480;29.234;2023-05-23T07:10:25;84616.31;;;19.37;33.24
79142;BME280;68550;-26.480;29.234;2023-05-23T07:12:51;84619.18;;;19.06;33.97
79142;BME280;68550;-26.480;29.234;2023-05-23T07:15:18;84618.32;;;19.38;33.41
79142;BME280;68550;-26.480;29.234;2023-05-23T07:17:41;84611.29;;;19.70;32.95
79142;BME280;68550;-26.480;29.234;2023-05-23T07:20:08;84611.88;;;19.63;33.04
79142;BME280;68550;-26.480;29.234;2023-05-23T07:22:32;84615.96;;;20.05;33.11
79142;BME280;68550;-26.480;29.234;2023-05-23T07:24:58;84618.48;;;19.32;33.41
79142;BME280;68550;-26.480;29.234;2023-05-23T07:27:25;84627.85;;;19.80;33.08
79142;BME280;68550;-26.480;29.234;2023-05-23T07:29:49;84627.36;;;19.67;33.23
79142;BME280;68550;-26.480;29.234;2023-05-23T07:32:14;84625.58;;;19.90;33.18
79142;BME280;68550;-26.480;29.234;2023-05-23T07:34:39;84635.15;;;19.88;33.40
79142;BME280;68550;-26.480;29.234;2023-05-23T07:37:05;84638.53;;;19.90;33.27
79142;BME280;68550;-26.480;29.234;2023-05-23T07:39:30;84642.26;;;19.85;32.89
79142;BME280;68550;-26.480;29.234;2023-05-23T07:41:59;84645.19;;;19.95;33.18
79142;BME280;68550;-26.480;29.234;2023-05-23T07:44:20;84647.79;;;19.83;33.30
79142;BME280;68550;-26.480;29.234;2023-05-23T07:46:45;84645.61;;;20.36;33.03
79142;BME280;68550;-26.480;29.234;2023-05-23T07:49:11;84638.83;;;20.10;32.93
79142;BME280;68550;-26.480;29.234;2023-05-23T07:51:36;84641.60;;;19.64;34.00
79142;BME280;68550;-26.480;29.234;2023-05-23T07:54:03;84640.13;;;19.64;33.88
79142;BME280;68550;-26.480;29.234;2023-05-23T07:56:27;84638.10;;;20.22;32.81
79142;BME280;68550;-26.480;29.234;2023-05-23T07:58:53;84631.40;;;20.10;32.91
79142;BME280;68550;-26.480;29.234;2023-05-23T08:01:19;84624.86;;;20.23;32.76
79142;BME280;68550;-26.480;29.234;2023-05-23T08:03:45;84622.49;;;19.87;33.02
79142;BME280;68550;-26.480;29.234;2023-05-23T08:06:11;84617.53;;;20.31;32.68
79142;BME280;68550;-26.480;29.234;2023-05-23T08:08:38;84617.20;;;20.04;32.72
79142;BME280;68550;-26.480;29.234;2023-05-23T08:11:01;84610.20;;;20.10;32.52
79142;BME280;68550;-26.480;29.234;2023-05-23T08:13:26;84619.12;;;20.07;33.34
79142;BME280;68550;-26.480;29.234;2023-05-23T08:15:52;84618.06;;;20.12;33.15
79142;BME280;68550;-26.480;29.234;2023-05-23T08:18:17;84618.23;;;20.04;32.94
79142;BME280;68550;-26.480;29.234;2023-05-23T08:20:46;84613.05;;;19.69;33.04
79142;BME280;68550;-26.480;29.234;2023-05-23T08:23:09;84616.92;;;20.42;32.75
79142;BME280;68550;-26.480;29.234;2023-05-23T08:25:34;84617.84;;;20.09;33.33
79142;BME280;68550;-26.480;29.234;2023-05-23T08:28:00;84615.98;;;19.70;33.52
79142;BME280;68550;-26.480;29.234;2023-05-23T08:30:25;84616.40;;;19.70;33.60
79142;BME280;68550;-26.480;29.234;2023-05-23T08:32:51;84620.32;;;20.02;33.02
79142;BME280;68550;-26.480;29.234;2023-05-23T08:35:16;84628.68;;;20.25;32.59
79142;BME280;68550;-26.480;29.234;2023-05-23T08:37:44;84642.17;;;20.27;32.67
79142;BME280;68550;-26.480;29.234;2023-05-23T08:40:10;84624.22;;;20.53;32.52
79142;BME280;68550;-26.480;29.234;2023-05-23T08:42:34;84614.90;;;20.08;32.48
79142;BME280;68550;-26.480;29.234;2023-05-23T08:44:58;84616.19;;;20.22;32.68
79142;BME280;68550;-26.480;29.234;2023-05-23T08:47:23;84616.06;;;20.39;32.56
79142;BME280;68550;-26.480;29.234;2023-05-23T08:49:49;84603.48;;;20.35;32.48
79142;BME280;68550;-26.480;29.234;2023-05-23T08:52:16;84603.74;;;20.42;32.31
79142;BME280;68550;-26.480;29.234;2023-05-23T08:54:42;84602.97;;;20.37;32.62
79142;BME280;68550;-26.480;29.234;2023-05-23T08:57:08;84598.21;;;20.66;32.51
79142;BME280;68550;-26.480;29.234;2023-05-23T08:59:31;84591.82;;;20.45;32.45
79142;BME280;68550;-26.480;29.234;2023-05-23T09:01:56;84589.69;;;20.43;32.48
79142;BME280;68550;-26.480;29.234;2023-05-23T09:04:22;84580.28;;;20.47;32.48
79142;BME280;68550;-26.480;29.234;2023-05-23T09:06:48;84573.00;;;20.40;32.62
79142;BME280;68550;-26.480;29.234;2023-05-23T09:09:14;84573.40;;;20.43;32.67
79142;BME280;68550;-26.480;29.234;2023-05-23T09:11:38;84571.38;;;20.55;32.61
79142;BME280;68550;-26.480;29.234;2023-05-23T09:14:04;84566.78;;;20.10;33.16
79142;BME280;68550;-26.480;29.234;2023-05-23T09:16:33;84569.24;;;20.62;32.65
79142;BME280;68550;-26.480;29.234;2023-05-23T09:18:55;84568.68;;;20.12;32.95
79142;BME280;68550;-26.480;29.234;2023-05-23T09:21:22;84563.91;;;20.86;32.25
79142;BME280;68550;-26.480;29.234;2023-05-23T09:23:45;84559.27;;;20.52;32.39
79142;BME280;68550;-26.480;29.234;2023-05-23T09:26:11;84555.68;;;20.83;32.30
79142;BME280;68550;-26.480;29.234;2023-05-23T09:28:37;84555.97;;;20.55;32.47
79142;BME280;68550;-26.480;29.234;2023-05-23T09:31:02;84546.43;;;20.93;32.22
79142;BME280;68550;-26.480;29.234;2023-05-23T09:33:38;84541.44;;;20.89;32.19
79142;BME280;68550;-26.480;29.234;2023-05-23T09:35:53;84535.22;;;20.44;32.24
79142;BME280;68550;-26.480;29.234;2023-05-23T09:38:18;84532.48;;;20.88;32.21
79142;BME280;68550;-26.480;29.234;2023-05-23T09:40:45;84527.89;;;20.62;32.22
79142;BME280;68550;-26.480;29.234;2023-05-23T09:43:08;84516.92;;;20.93;32.11
79142;BME280;68550;-26.480;29.234;2023-05-23T09:45:34;84515.79;;;20.89;32.14
79142;BME280;68550;-26.480;29.234;2023-05-23T09:47:59;84523.00;;;20.55;32.26
79142;BME280;68550;-26.480;29.234;2023-05-23T09:50:29;84518.46;;;20.88;32.14
79142;BME280;68550;-26.480;29.234;2023-05-23T09:52:50;84514.54;;;20.89;32.12
79142;BME280;68550;-26.480;29.234;2023-05-23T09:55:16;84507.94;;;20.98;32.08
79142;BME280;68550;-26.480;29.234;2023-05-23T09:57:42;84504.75;;;20.69;32.56
79142;BME280;68550;-26.480;29.234;2023-05-23T10:00:10;84498.06;;;20.96;32.13
79142;BME280;68550;-26.480;29.234;2023-05-23T10:04:58;84484.58;;;21.00;32.14
79142;BME280;68550;-26.480;29.234;2023-05-23T10:07:24;84479.15;;;20.50;32.26
79142;BME280;68550;-26.480;29.234;2023-05-23T10:09:52;84476.63;;;21.06;32.13
79142;BME280;68550;-26.480;29.234;2023-05-23T10:14:43;84474.17;;;20.44;32.35
79142;BME280;68550;-26.480;29.234;2023-05-23T10:17:10;84477.41;;;20.89;32.11
79142;BME280;68550;-26.480;29.234;2023-05-23T10:19:37;84469.47;;;20.81;31.98
79142;BME280;68550;-26.480;29.234;2023-05-23T10:21:59;84466.87;;;21.04;32.02
79142;BME280;68550;-26.480;29.234;2023-05-23T10:24:24;84462.17;;;21.00;32.08
79142;BME280;68550;-26.480;29.234;2023-05-23T10:26:47;84456.87;;;21.05;32.05
79142;BME280;68550;-26.480;29.234;2023-05-23T10:29:12;84454.57;;;21.19;32.18
79142;BME280;68550;-26.480;29.234;2023-05-23T10:31:38;84454.47;;;20.92;32.53
79142;BME280;68550;-26.480;29.234;2023-05-23T10:34:11;84447.30;;;21.21;32.14
79142;BME280;68550;-26.480;29.234;2023-05-23T10:36:36;84446.71;;;20.96;32.17
79142;BME280;68550;-26.480;29.234;2023-05-23T10:39:03;84438.15;;;20.97;32.17
79142;BME280;68550;-26.480;29.234;2023-05-23T10:41:27;84428.64;;;21.24;32.16
79142;BME280;68550;-26.480;29.234;2023-05-23T10:43:51;84423.76;;;21.23;32.17
79142;BME280;68550;-26.480;29.234;2023-05-23T10:46:12;84417.20;;;21.20;32.28
79142;BME280;68550;-26.480;29.234;2023-05-23T10:48:42;84411.87;;;21.10;32.39
79142;BME280;68550;-26.480;29.234;2023-05-23T10:51:04;84397.47;;;21.08;32.12
79142;BME280;68550;-26.480;29.234;2023-05-23T10:53:29;84396.86;;;20.96;32.29
79142;BME280;68550;-26.480;29.234;2023-05-23T10:55:52;84393.03;;;21.10;32.11
79142;BME280;68550;-26.480;29.234;2023-05-23T10:58:18;84385.72;;;20.92;32.04
79142;BME280;68550;-26.480;29.234;2023-05-23T11:00:51;84383.13;;;20.93;32.29
79142;BME280;68550;-26.480;29.234;2023-05-23T11:03:08;84376.72;;;21.01;32.18
79142;BME280;68550;-26.480;29.234;2023-05-23T11:05:33;84377.16;;;21.10;32.39
79142;BME280;68550;-26.480;29.234;2023-05-23T11:08:09;84379.40;;;20.77;32.18
79142;BME280;68550;-26.480;29.234;2023-05-23T11:10:25;84375.28;;;20.85;32.13
79142;BME280;68550;-26.480;29.234;2023-05-23T11:12:55;84367.41;;;21.27;32.16
79142;BME280;68550;-26.480;29.234;2023-05-23T11:15:21;84364.34;;;20.73;32.29
79142;BME280;68550;-26.480;29.234;2023-05-23T11:17:50;84362.72;;;20.81;32.21
79142;BME280;68550;-26.480;29.234;2023-05-23T11:20:09;84352.33;;;20.87;32.14
79142;BME280;68550;-26.480;29.234;2023-05-23T11:22:33;84340.79;;;20.95;32.34
79142;BME280;68550;-26.480;29.234;2023-05-23T11:25:00;84338.88;;;21.02;32.28
79142;BME280;68550;-26.480;29.234;2023-05-23T11:27:30;84337.22;;;20.79;32.25
79142;BME280;68550;-26.480;29.234;2023-05-23T11:29:58;84321.95;;;20.89;32.12
79142;BME280;68550;-26.480;29.234;2023-05-23T11:32:15;84319.19;;;20.94;32.36
79142;BME280;68550;-26.480;29.234;2023-05-23T11:34:41;84320.39;;;20.97;32.31
79142;BME280;68550;-26.480;29.234;2023-05-23T11:37:06;84323.78;;;21.27;32.24
79142;BME280;68550;-26.480;29.234;2023-05-23T11:39:32;84321.67;;;21.06;32.21
79142;BME280;68550;-26.480;29.234;2023-05-23T11:42:00;84317.48;;;21.07;32.24
79142;BME280;68550;-26.480;29.234;2023-05-23T11:44:24;84316.73;;;21.42;32.15
79142;BME280;68550;-26.480;29.234;2023-05-23T11:46:59;84304.78;;;21.20;32.14
79142;BME280;68550;-26.480;29.234;2023-05-23T11:49:13;84303.71;;;21.44;32.13
79142;BME280;68550;-26.480;29.234;2023-05-23T11:51:40;84304.42;;;21.16;32.19
79142;BME280;68550;-26.480;29.234;2023-05-23T11:54:05;84300.58;;;20.90;32.20
79142;BME280;68550;-26.480;29.234;2023-05-23T11:56:30;84300.27;;;21.09;32.27
79142;BME280;68550;-26.480;29.234;2023-05-23T11:58:57;84287.41;;;20.84;32.28
79142;BME280;68550;-26.480;29.234;2023-05-23T12:01:27;84288.84;;;20.84;32.28
79142;BME280;68550;-26.480;29.234;2023-05-23T12:03:50;84283.39;;;20.94;32.19
79142;BME280;68550;-26.480;29.234;2023-05-23T12:06:15;84288.98;;;20.91;32.19
79142;BME280;68550;-26.480;29.234;2023-05-23T12:08:38;84291.45;;;20.91;32.20
79142;BME280;68550;-26.480;29.234;2023-05-23T12:11:04;84289.09;;;21.08;32.24
79142;BME280;68550;-26.480;29.234;2023-05-23T12:13:30;84290.80;;;21.08;32.19
79142;BME280;68550;-26.480;29.234;2023-05-23T12:16:00;84293.61;;;21.17;32.13
79142;BME280;68550;-26.480;29.234;2023-05-23T12:18:20;84289.16;;;20.94;32.38
79142;BME280;68550;-26.480;29.234;2023-05-23T12:20:48;84285.64;;;20.85;32.24
79142;BME280;68550;-26.480;29.234;2023-05-23T12:23:19;84289.15;;;21.18;32.13
79142;BME280;68550;-26.480;29.234;2023-05-23T12:25:40;84281.85;;;21.16;32.15
79142;BME280;68550;-26.480;29.234;2023-05-23T12:28:02;84271.47;;;21.17;32.15
79142;BME280;68550;-26.480;29.234;2023-05-23T12:30:28;84276.15;;;21.14;32.15
79142;BME280;68550;-26.480;29.234;2023-05-23T12:32:53;84274.60;;;21.23;32.01
79142;BME280;68550;-26.480;29.234;2023-05-23T12:35:19;84273.77;;;21.24;32.02
79142;BME280;68550;-26.480;29.234;2023-05-23T12:37:46;84272.63;;;21.08;32.16
79142;BME280;68550;-26.480;29.234;2023-05-23T12:40:14;84271.43;;;20.95;32.09
79142;BME280;68550;-26.480;29.234;2023-05-23T12:42:45;84267.52;;;21.15;32.14
79142;BME280;68550;-26.480;29.234;2023-05-23T12:45:01;84264.76;;;20.96;32.06
79142;BME280;68550;-26.480;29.234;2023-05-23T12:47:27;84264.46;;;21.34;32.16
79142;BME280;68550;-26.480;29.234;2023-05-23T12:49:53;84263.22;;;20.99;32.00
79142;BME280;68550;-26.480;29.234;2023-05-23T12:52:17;84266.34;;;21.16;32.08
79142;BME280;68550;-26.480;29.234;2023-05-23T12:54:44;84260.16;;;21.09;32.15
79142;BME280;68550;-26.480;29.234;2023-05-23T12:57:09;84261.88;;;20.79;32.15
79142;BME280;68550;-26.480;29.234;2023-05-23T12:59:35;84262.06;;;21.32;32.11
79142;BME280;68550;-26.480;29.234;2023-05-23T13:02:00;84267.45;;;21.07;32.15
79142;BME280;68550;-26.480;29.234;2023-05-23T13:04:25;84263.19;;;20.57;32.33